createdAt,value
2019-02-19T00:02:30.752Z,7.80
2019-02-19T00:05:04.448Z,7.80
2019-02-19T00:07:41.595Z,7.80
2019-02-19T00:10:38.010Z,7.70
2019-02-19T00:13:22.783Z,7.80
2019-02-19T00:16:08.925Z,7.80
2019-02-19T00:18:52.894Z,7.90
2019-02-19T00:21:47.288Z,7.80
2019-02-19T00:24:32.014Z,8.00
2019-02-19T00:27:13.802Z,8.00
2019-02-19T00:30:08.898Z,8.00
2019-02-19T00:32:53.555Z,8.10
2019-02-19T00:35:31.589Z,8.00
2019-02-19T00:38:36.507Z,7.90
2019-02-19T00:41:25.245Z,7.90
2019-02-19T00:43:55.540Z,7.90
2019-02-19T00:46:36.826Z,7.80
2019-02-19T00:49:12.866Z,7.80
2019-02-19T00:51:46.804Z,7.70
2019-02-19T00:54:34.655Z,7.70
2019-02-19T00:57:06.269Z,7.80
2019-02-19T00:59:39.873Z,7.80
2019-02-19T01:02:16.677Z,7.80
2019-02-19T01:04:58.410Z,7.70
2019-02-19T01:08:07.697Z,7.70
2019-02-19T01:14:25.049Z,7.80
2019-02-19T01:17:04.222Z,7.80
2019-02-19T01:20:14.199Z,7.70
2019-02-19T01:23:08.085Z,7.60
2019-02-19T01:25:54.132Z,7.60
2019-02-19T01:28:42.174Z,7.60
2019-02-19T01:31:44.884Z,7.60
2019-02-19T01:34:46.124Z,7.60
2019-02-19T01:37:58.454Z,7.60
2019-02-19T01:40:48.724Z,7.70
2019-02-19T01:43:24.191Z,7.70
2019-02-19T01:46:08.682Z,7.70
2019-02-19T01:52:53.917Z,7.70
2019-02-19T01:55:42.586Z,7.80
2019-02-19T01:58:26.167Z,7.80
2019-02-19T02:01:10.343Z,7.80
2019-02-19T02:04:07.570Z,7.70
2019-02-19T02:06:53.896Z,7.80
2019-02-19T02:09:40.009Z,7.70
2019-02-19T02:12:26.079Z,7.80
2019-02-19T02:15:05.696Z,7.80
2019-02-19T02:17:53.870Z,7.90
2019-02-19T02:21:55.954Z,7.80
2019-02-19T02:27:33.799Z,7.80
2019-02-19T02:30:19.922Z,7.80
2019-02-19T02:33:21.802Z,7.80
2019-02-19T02:36:26.901Z,7.80
2019-02-19T02:39:38.877Z,7.70
2019-02-19T02:43:22.811Z,7.70
2019-02-19T02:46:30.975Z,7.50
2019-02-19T02:49:18.755Z,7.50
2019-02-19T02:51:59.790Z,7.40
2019-02-19T02:55:00.289Z,7.40
2019-02-19T02:57:46.312Z,7.40
2019-02-19T03:00:25.876Z,7.30
2019-02-19T03:03:37.014Z,7.40
2019-02-19T03:06:55.758Z,7.30
2019-02-19T03:09:49.382Z,7.30
2019-02-19T03:16:07.781Z,7.30
2019-02-19T03:19:29.676Z,7.50
2019-02-19T03:22:37.610Z,7.50
2019-02-19T03:25:16.051Z,7.70
2019-02-19T03:28:26.219Z,7.60
2019-02-19T03:31:26.688Z,7.60
2019-02-19T03:34:10.911Z,7.80
2019-02-19T03:37:49.351Z,7.80
2019-02-19T03:40:36.030Z,7.80
2019-02-19T03:43:34.814Z,7.90
2019-02-19T03:46:39.921Z,7.80
2019-02-19T03:49:26.290Z,7.90
2019-02-19T03:52:06.569Z,8.10
2019-02-19T03:54:52.536Z,7.90
2019-02-19T03:57:32.410Z,7.90
2019-02-19T04:00:14.812Z,7.90
2019-02-19T04:03:11.950Z,8.00
2019-02-19T04:10:01.362Z,8.00
2019-02-19T04:12:51.342Z,8.00
2019-02-19T04:15:39.280Z,8.00
2019-02-19T04:18:52.700Z,8.00
2019-02-19T04:21:47.538Z,8.00
2019-02-19T04:25:03.438Z,8.00
2019-02-19T04:27:59.014Z,8.00
2019-02-19T04:30:51.295Z,7.90
2019-02-19T04:33:36.184Z,7.90
2019-02-19T04:36:24.471Z,7.80
2019-02-19T04:39:06.283Z,7.80
2019-02-19T04:41:42.515Z,7.80
2019-02-19T04:44:19.938Z,7.80
2019-02-19T04:46:56.260Z,7.80
2019-02-19T04:49:34.932Z,7.70
2019-02-19T04:52:26.664Z,7.70
2019-02-19T04:54:57.501Z,7.70
2019-02-19T04:57:40.100Z,7.70
2019-02-19T05:00:17.302Z,7.60
2019-02-19T05:02:52.777Z,7.50
2019-02-19T05:05:40.500Z,7.40
2019-02-19T05:08:20.045Z,7.40
2019-02-19T05:10:51.105Z,7.40
2019-02-19T05:14:01.552Z,7.30
2019-02-19T05:16:54.989Z,7.30
2019-02-19T05:19:28.566Z,7.20
2019-02-19T05:22:05.055Z,7.10
2019-02-19T05:24:39.424Z,7.10
2019-02-19T05:27:17.842Z,7.10
2019-02-19T05:29:49.513Z,7.10
2019-02-19T05:32:35.005Z,7.00
2019-02-19T05:35:06.790Z,7.00
2019-02-19T05:41:24.547Z,7.00
2019-02-19T05:51:21.747Z,6.90
2019-02-19T05:54:19.261Z,6.90
2019-02-19T05:56:57.467Z,6.90
2019-02-19T05:59:39.921Z,6.90
2019-02-19T06:02:15.025Z,6.80
2019-02-19T06:05:16.487Z,6.80
2019-02-19T06:07:49.291Z,6.80
2019-02-19T06:11:09.793Z,6.70
2019-02-19T06:13:51.535Z,6.60
2019-02-19T06:16:58.446Z,6.60
2019-02-19T06:19:29.918Z,6.70
2019-02-19T06:22:02.023Z,6.70
2019-02-19T06:24:41.860Z,6.70
2019-02-19T06:27:41.243Z,6.80
2019-02-19T06:30:16.641Z,6.90
2019-02-19T06:36:17.116Z,6.90
2019-02-19T06:38:48.822Z,6.90
2019-02-19T06:41:35.632Z,6.90
2019-02-19T06:44:06.498Z,6.90
2019-02-19T06:46:50.455Z,6.90
2019-02-19T06:49:22.512Z,7.00
2019-02-19T06:52:24.172Z,7.00
2019-02-19T06:55:30.542Z,7.10
2019-02-19T06:58:02.319Z,7.10
2019-02-19T07:01:02.552Z,7.10
2019-02-19T07:03:46.915Z,7.10
2019-02-19T07:06:32.376Z,7.20
2019-02-19T07:09:08.771Z,7.10
2019-02-19T07:12:40.046Z,7.20
2019-02-19T07:15:12.067Z,7.20
2019-02-19T07:21:30.117Z,7.20
2019-02-19T07:27:26.316Z,7.30
2019-02-19T07:29:57.168Z,7.30
2019-02-19T07:37:15.842Z,7.30
2019-02-19T07:39:49.228Z,7.30
2019-02-19T07:42:28.384Z,7.30
2019-02-19T07:45:10.465Z,7.30
2019-02-19T07:48:06.586Z,7.30
2019-02-19T07:50:43.772Z,7.30
2019-02-19T07:53:21.668Z,7.30
2019-02-19T07:56:13.138Z,7.40
2019-02-19T07:58:50.025Z,7.40
2019-02-19T08:01:36.115Z,7.50
2019-02-19T08:04:24.617Z,7.60
2019-02-19T08:07:35.336Z,7.60
2019-02-19T08:13:32.685Z,7.90
2019-02-19T08:19:09.498Z,8.10
2019-02-19T08:22:07.821Z,8.10
2019-02-19T08:24:45.941Z,8.10
2019-02-19T08:27:23.353Z,8.10
2019-02-19T08:30:11.276Z,8.10
2019-02-19T08:32:55.172Z,8.20
2019-02-19T08:35:45.092Z,8.20
2019-02-19T08:38:31.886Z,8.20
2019-02-19T08:41:50.342Z,8.10
2019-02-19T08:44:38.483Z,8.10
2019-02-19T08:47:14.211Z,8.20
2019-02-19T08:49:52.605Z,8.20
2019-02-19T08:52:41.224Z,8.20
2019-02-19T08:55:50.134Z,8.30
2019-02-19T08:59:21.001Z,8.20
2019-02-19T09:02:09.954Z,8.20
2019-02-19T09:04:57.202Z,8.30
2019-02-19T09:07:31.957Z,8.30
2019-02-19T09:10:53.970Z,8.20
2019-02-19T09:13:53.954Z,8.20
2019-02-19T09:16:29.147Z,8.30
2019-02-19T09:19:00.283Z,8.20
2019-02-19T09:21:34.672Z,8.10
2019-02-19T09:24:23.958Z,8.10
2019-02-19T09:27:04.922Z,8.10
2019-02-19T09:29:54.157Z,8.00
2019-02-19T09:32:28.108Z,8.00
2019-02-19T09:35:50.232Z,8.10
2019-02-19T09:39:03.626Z,8.10
2019-02-19T09:41:39.672Z,8.00
2019-02-19T09:44:11.475Z,8.20
2019-02-19T09:47:15.763Z,8.10
2019-02-19T09:50:27.023Z,8.30
2019-02-19T09:53:19.687Z,8.40
2019-02-19T09:56:13.770Z,8.50
2019-02-19T09:58:52.179Z,8.80
2019-02-19T10:02:12.965Z,8.90
2019-02-19T10:04:47.158Z,9.10
2019-02-19T10:07:24.943Z,8.90
2019-02-19T10:10:09.319Z,8.90
2019-02-19T10:12:46.721Z,9.00
2019-02-19T10:15:33.349Z,8.90
2019-02-19T10:19:05.228Z,8.80
2019-02-19T10:21:55.024Z,9.10
2019-02-19T10:24:34.866Z,9.00
2019-02-19T10:27:35.797Z,9.10
2019-02-19T10:30:20.388Z,9.00
2019-02-19T10:33:41.177Z,9.20
2019-02-19T10:36:35.367Z,9.30
2019-02-19T10:39:20.722Z,9.30
2019-02-19T10:46:11.465Z,9.50
2019-02-19T10:48:41.703Z,9.50
2019-02-19T10:51:47.194Z,9.40
2019-02-19T10:55:07.447Z,9.30
2019-02-19T10:58:01.505Z,9.50
2019-02-19T11:01:35.753Z,9.60
2019-02-19T11:04:17.396Z,9.90
2019-02-19T11:07:18.802Z,10.00
2019-02-19T11:10:36.914Z,10.10
2019-02-19T11:13:15.299Z,10.10
2019-02-19T11:16:14.422Z,10.20
2019-02-19T11:22:03.119Z,10.90
2019-02-19T11:24:57.358Z,10.80
2019-02-19T11:27:44.484Z,10.50
2019-02-19T11:30:34.967Z,10.30
2019-02-19T11:33:11.179Z,10.30
2019-02-19T11:36:15.857Z,10.40
2019-02-19T11:39:00.483Z,10.40
2019-02-19T11:41:36.998Z,10.30
2019-02-19T11:44:07.322Z,10.20
2019-02-19T11:46:37.833Z,10.20
2019-02-19T11:49:08.255Z,10.40
2019-02-19T11:51:38.787Z,10.40
2019-02-19T11:54:09.254Z,10.30
2019-02-19T11:56:39.609Z,10.20
2019-02-19T11:59:10.218Z,10.20
2019-02-19T12:01:40.784Z,10.40
2019-02-19T12:04:11.347Z,10.40
2019-02-19T12:06:42.028Z,10.30
2019-02-19T12:09:12.542Z,10.20
2019-02-19T12:11:43.022Z,10.40
2019-02-19T12:14:13.407Z,10.40
2019-02-19T12:16:43.736Z,10.30
2019-02-19T12:19:14.198Z,10.40
2019-02-19T12:21:44.574Z,10.40
2019-02-19T12:24:14.939Z,10.30
2019-02-19T12:26:45.419Z,10.30
2019-02-19T12:29:21.221Z,10.30
2019-02-19T12:31:54.942Z,10.40
2019-02-19T12:34:25.683Z,10.30
2019-02-19T12:36:57.342Z,10.30
2019-02-19T12:39:30.808Z,10.20
2019-02-19T12:42:01.372Z,10.20
2019-02-19T12:44:31.804Z,10.40
2019-02-19T12:47:02.344Z,10.60
2019-02-19T12:49:32.843Z,10.50
2019-02-19T12:52:03.274Z,10.60
2019-02-19T12:54:36.775Z,10.40
2019-02-19T12:57:07.322Z,10.30
2019-02-19T12:59:38.079Z,10.30
2019-02-19T13:02:08.634Z,10.20
2019-02-19T13:04:39.293Z,10.30
2019-02-19T13:07:09.887Z,10.30
2019-02-19T13:09:41.467Z,10.30
2019-02-19T13:12:16.432Z,10.50
2019-02-19T13:14:47.363Z,10.50
2019-02-19T13:17:17.789Z,10.40
2019-02-19T13:19:48.168Z,10.40
2019-02-19T13:22:18.653Z,10.30
2019-02-19T13:24:48.999Z,10.40
2019-02-19T13:27:19.478Z,10.50
2019-02-19T13:29:49.894Z,10.60
2019-02-19T13:32:20.254Z,10.70
2019-02-19T13:34:50.797Z,10.90
2019-02-19T13:37:21.324Z,11.00
2019-02-19T13:39:51.792Z,10.90
2019-02-19T13:42:22.160Z,10.70
2019-02-19T13:44:52.649Z,10.90
2019-02-19T13:47:23.120Z,10.80
2019-02-19T13:49:53.548Z,10.70
2019-02-19T13:52:34.344Z,10.80
2019-02-19T13:55:09.864Z,10.90
2019-02-19T13:57:40.323Z,11.10
2019-02-19T14:00:14.670Z,11.20
2019-02-19T14:02:45.133Z,11.10
2019-02-19T14:05:15.663Z,11.00
2019-02-19T14:07:46.039Z,10.70
2019-02-19T14:10:16.426Z,10.70
2019-02-19T14:12:46.829Z,10.50
2019-02-19T14:15:39.635Z,10.30
2019-02-19T14:18:10.888Z,10.20
2019-02-19T14:20:59.190Z,10.20
2019-02-19T14:23:49.098Z,10.20
2019-02-19T14:26:37.158Z,10.20
2019-02-19T14:29:21.213Z,10.20
2019-02-19T14:32:18.663Z,10.30
2019-02-19T14:35:26.034Z,10.30
2019-02-19T14:38:15.468Z,10.20
2019-02-19T14:41:17.538Z,10.20
2019-02-19T14:44:25.115Z,10.10
2019-02-19T14:47:07.209Z,10.00
2019-02-19T14:50:05.418Z,10.00
2019-02-19T14:53:06.897Z,9.90
2019-02-19T14:55:57.833Z,9.90
2019-02-19T14:59:21.273Z,9.90
2019-02-19T15:02:09.467Z,9.90
2019-02-19T15:05:07.879Z,9.90
2019-02-19T15:07:57.361Z,9.90
2019-02-19T15:10:52.796Z,9.80
2019-02-19T15:13:40.754Z,9.60
2019-02-19T15:16:19.953Z,9.60
2019-02-19T15:19:07.899Z,9.70
2019-02-19T15:22:06.420Z,9.80
2019-02-19T15:24:44.505Z,9.80
2019-02-19T15:27:36.319Z,9.70
2019-02-19T15:30:24.948Z,9.60
2019-02-19T15:33:16.989Z,9.60
2019-02-19T15:36:15.151Z,9.50
2019-02-19T15:39:19.670Z,9.60
2019-02-19T15:42:11.211Z,9.50
2019-02-19T15:44:49.706Z,9.50
2019-02-19T15:47:45.099Z,9.50
2019-02-19T15:50:33.424Z,9.50
2019-02-19T15:53:31.964Z,9.50
2019-02-19T15:56:19.994Z,9.50
2019-02-19T15:59:08.446Z,9.50
2019-02-19T16:01:57.999Z,9.40
2019-02-19T16:04:35.443Z,9.40
2019-02-19T16:07:24.645Z,9.40
2019-02-19T16:10:13.995Z,9.40
2019-02-19T16:12:59.175Z,9.40
2019-02-19T16:15:57.513Z,9.50
2019-02-19T16:18:45.601Z,9.40
2019-02-19T16:21:34.895Z,9.30
2019-02-19T16:24:13.660Z,9.30
2019-02-19T16:26:58.768Z,9.30
2019-02-19T16:29:50.879Z,9.20
2019-02-19T16:32:30.029Z,9.20
2019-02-19T16:35:23.544Z,9.20
2019-02-19T16:38:31.468Z,9.10
2019-02-19T16:41:16.655Z,9.10
2019-02-19T16:44:14.025Z,9.10
2019-02-19T16:47:03.468Z,9.00
2019-02-19T16:49:55.854Z,9.00
2019-02-19T16:52:45.274Z,8.90
2019-02-19T16:55:33.477Z,8.90
2019-02-19T16:58:25.915Z,8.90
2019-02-19T17:01:01.795Z,8.90
2019-02-19T17:03:37.772Z,8.80
2019-02-19T17:06:23.859Z,8.90
2019-02-19T17:09:16.120Z,8.90
2019-02-19T17:12:01.761Z,8.80
2019-02-19T17:14:57.209Z,8.60
2019-02-19T17:17:55.570Z,8.60
2019-02-19T17:20:47.715Z,8.60
2019-02-19T17:23:40.131Z,8.60
2019-02-19T17:26:18.366Z,8.60
2019-02-19T17:29:10.550Z,8.60
2019-02-19T17:31:52.825Z,8.70
2019-02-19T17:34:40.003Z,8.70
2019-02-19T17:37:32.071Z,8.70
2019-02-19T17:40:36.646Z,8.70
2019-02-19T17:43:29.014Z,8.70
2019-02-19T17:46:11.449Z,8.80
2019-02-19T17:48:59.684Z,8.70
2019-02-19T17:51:48.964Z,8.70
2019-02-19T17:54:36.435Z,8.70
2019-02-19T17:57:25.856Z,8.70
2019-02-19T18:00:21.272Z,8.70
2019-02-19T18:03:10.046Z,8.80
2019-02-19T18:05:59.459Z,8.70
2019-02-19T18:08:38.179Z,8.80
2019-02-19T18:11:15.783Z,8.80
2019-02-19T18:14:06.290Z,8.70
2019-02-19T18:16:45.573Z,8.60
2019-02-19T18:19:15.987Z,8.50
2019-02-19T18:21:46.546Z,8.40
2019-02-19T18:24:17.155Z,8.30
2019-02-19T18:26:47.511Z,8.30
2019-02-19T18:29:17.923Z,8.20
2019-02-19T18:31:48.316Z,8.20
2019-02-19T18:34:18.925Z,8.20
2019-02-19T18:36:49.376Z,8.30
2019-02-19T18:39:19.791Z,8.20
2019-02-19T18:41:50.195Z,8.20
2019-02-19T18:44:20.676Z,8.20
2019-02-19T18:46:51.229Z,8.10
2019-02-19T18:49:21.855Z,8.10
2019-02-19T18:51:52.465Z,8.20
2019-02-19T18:54:22.905Z,8.20
2019-02-19T18:56:53.456Z,8.30
2019-02-19T18:59:23.881Z,8.30
2019-02-19T19:01:54.496Z,8.30
2019-02-19T19:04:24.934Z,8.40
2019-02-19T19:06:55.335Z,8.40
2019-02-19T19:09:25.773Z,8.40
2019-02-19T19:11:56.176Z,8.50
2019-02-19T19:14:26.643Z,8.40
2019-02-19T19:16:57.146Z,8.40
2019-02-19T19:19:27.686Z,8.40
2019-02-19T19:21:58.201Z,8.40
2019-02-19T19:24:28.730Z,8.40
2019-02-19T19:26:59.262Z,8.40
2019-02-19T19:29:29.792Z,8.40
2019-02-19T19:32:00.290Z,8.40
2019-02-19T19:34:30.776Z,8.40
2019-02-19T19:37:01.196Z,8.40
2019-02-19T19:39:32.815Z,8.30
2019-02-19T19:42:03.200Z,8.30
2019-02-19T19:44:33.718Z,8.20
2019-02-19T19:47:06.641Z,8.30
2019-02-19T19:49:37.061Z,8.20
2019-02-19T19:52:07.616Z,8.20
2019-02-19T19:54:38.119Z,8.20
2019-02-19T19:57:13.778Z,8.20
2019-02-19T19:59:44.431Z,8.20
2019-02-19T20:02:15.128Z,8.20
2019-02-19T20:04:45.608Z,8.10
2019-02-19T20:07:16.388Z,8.10
2019-02-19T20:09:48.538Z,8.00
2019-02-19T20:12:19.537Z,8.00
2019-02-19T20:14:50.180Z,8.00
2019-02-19T20:17:32.695Z,7.90
2019-02-19T20:20:05.135Z,8.00
2019-02-19T20:22:35.727Z,7.90
2019-02-19T20:25:06.532Z,8.00
2019-02-19T20:27:37.100Z,8.00
2019-02-19T20:30:09.334Z,8.00
2019-02-19T20:32:40.268Z,8.00
2019-02-19T20:35:10.806Z,8.00
2019-02-19T20:37:41.705Z,7.90
2019-02-19T20:40:13.454Z,7.90
2019-02-19T20:42:43.917Z,7.90
2019-02-19T20:45:14.545Z,7.90
2019-02-19T20:47:45.192Z,7.90
2019-02-19T20:50:15.604Z,7.80
2019-02-19T20:52:57.322Z,7.70
2019-02-19T20:55:36.530Z,7.60
2019-02-19T20:58:00.144Z,7.50
2019-02-19T21:00:30.478Z,7.40
2019-02-19T21:03:01.020Z,7.30
2019-02-19T21:05:31.614Z,7.20
2019-02-19T21:08:02.238Z,7.10
2019-02-19T21:10:32.624Z,6.90
2019-02-19T21:13:03.042Z,6.80
2019-02-19T21:15:33.588Z,6.70
2019-02-19T21:18:04.101Z,6.60
2019-02-19T21:20:34.681Z,6.60
2019-02-19T21:23:05.115Z,6.60
2019-02-19T21:25:35.753Z,6.60
2019-02-19T21:28:06.272Z,6.70
2019-02-19T21:30:37.000Z,6.60
2019-02-19T21:33:07.682Z,6.60
2019-02-19T21:35:38.236Z,6.50
2019-02-19T21:38:08.761Z,6.60
2019-02-19T21:40:39.327Z,6.50
2019-02-19T21:43:09.737Z,6.50
2019-02-19T21:45:40.275Z,6.60
2019-02-19T21:48:10.797Z,6.60
2019-02-19T21:50:41.327Z,6.60
2019-02-19T21:53:11.956Z,6.60
2019-02-19T21:55:42.486Z,6.60
2019-02-19T21:58:13.127Z,6.70
2019-02-19T22:00:43.803Z,6.70
2019-02-19T22:03:16.011Z,6.70
2019-02-19T22:05:46.601Z,6.70
2019-02-19T22:08:21.841Z,6.60
2019-02-19T22:10:53.966Z,6.60
2019-02-19T22:13:24.395Z,6.60
2019-02-19T22:15:54.940Z,6.60
2019-02-19T22:18:25.380Z,6.60
2019-02-19T22:21:23.881Z,6.60
2019-02-19T22:23:54.481Z,6.50
2019-02-19T22:26:24.991Z,6.50
2019-02-19T22:28:55.322Z,6.50
2019-02-19T22:31:25.686Z,6.40
2019-02-19T22:33:56.091Z,6.40
2019-02-19T22:36:26.677Z,6.40
2019-02-19T22:39:00.097Z,6.40
2019-02-19T22:41:30.541Z,6.30
2019-02-19T22:44:01.056Z,6.30
2019-02-19T22:46:31.539Z,6.30
2019-02-19T22:49:01.988Z,6.20
2019-02-19T22:51:32.561Z,6.20
2019-02-19T22:54:08.129Z,6.20
2019-02-19T22:56:41.422Z,6.20
2019-02-19T22:59:11.817Z,6.10
2019-02-19T23:01:45.486Z,6.00
2019-02-19T23:04:15.838Z,6.00
2019-02-19T23:06:46.227Z,6.00
2019-02-19T23:09:16.623Z,6.10
2019-02-19T23:11:47.053Z,6.10
2019-02-19T23:14:17.375Z,6.10
2019-02-19T23:16:47.730Z,6.10
2019-02-19T23:19:18.117Z,6.10
2019-02-19T23:21:48.496Z,6.10
2019-02-19T23:24:18.893Z,6.10
2019-02-19T23:26:49.286Z,6.10
2019-02-19T23:29:19.786Z,6.10
2019-02-19T23:31:50.321Z,6.10
2019-02-19T23:34:21.143Z,6.00
2019-02-19T23:37:10.177Z,6.10
2019-02-19T23:39:43.548Z,6.00
2019-02-19T23:42:13.799Z,6.00
2019-02-19T23:44:44.233Z,6.00
2019-02-19T23:47:15.608Z,6.10
2019-02-19T23:49:45.941Z,6.00
2019-02-19T23:52:16.316Z,6.00
2019-02-19T23:54:47.209Z,6.00
2019-02-19T23:57:17.573Z,6.00
2019-02-19T23:59:49.012Z,6.00
